sensor_id;sensor_type;location;lat;lon;timestamp;pressure;altitude;pressure_sealevel;temperature;humidity
75420;BME280;63998;52.488;13.428;2023-01-15T00:01:23;99277.78;;;8.43;80.57
75420;BME280;63998;52.488;13.428;2023-01-15T00:03:49;99274.38;;;8.41;81.00
75420;BME280;63998;52.488;13.428;2023-01-15T00:06:15;99273.44;;;8.47;80.71
75420;BME280;63998;52.488;13.428;2023-01-15T00:08:41;99255.31;;;8.50;80.43
75420;BME280;63998;52.488;13.428;2023-01-15T00:11:06;99251.03;;;8.46;80.23
75420;BME280;63998;52.488;13.428;2023-01-15T00:13:32;99278.63;;;8.47;80.34
75420;BME280;63998;52.488;13.428;2023-01-15T00:16:20;99257.06;;;8.46;80.25
75420;BME280;63998;52.488;13.428;2023-01-15T00:19:03;99264.78;;;8.51;80.02
75420;BME280;63998;52.488;13.428;2023-01-15T00:21:32;99257.84;;;8.53;79.92
75420;BME280;63998;52.488;13.428;2023-01-15T00:23:58;99263.91;;;8.52;79.62
75420;BME280;63998;52.488;13.428;2023-01-15T00:26:44;99258.66;;;8.56;79.58
75420;BME280;63998;52.488;13.428;2023-01-15T00:29:31;99250.81;;;8.61;79.28
75420;BME280;63998;52.488;13.428;2023-01-15T00:32:03;99256.84;;;8.63;78.91
75420;BME280;63998;52.488;13.428;2023-01-15T00:34:31;99237.00;;;8.62;79.21
75420;BME280;63998;52.488;13.428;2023-01-15T00:36:57;99237.84;;;8.64;79.22
75420;BME280;63998;52.488;13.428;2023-01-15T00:39:22;99235.19;;;8.67;79.07
75420;BME280;63998;52.488;13.428;2023-01-15T00:41:51;99223.91;;;8.73;79.15
75420;BME280;63998;52.488;13.428;2023-01-15T00:44:17;99223.09;;;8.69;78.84
75420;BME280;63998;52.488;13.428;2023-01-15T00:46:43;99212.69;;;8.72;79.07
75420;BME280;63998;52.488;13.428;2023-01-15T00:49:08;99203.25;;;8.70;79.25
75420;BME280;63998;52.488;13.428;2023-01-15T00:51:36;99208.50;;;8.65;78.97
75420;BME280;63998;52.488;13.428;2023-01-15T00:54:04;99205.84;;;8.68;78.94
75420;BME280;63998;52.488;13.428;2023-01-15T00:56:29;99217.84;;;8.75;78.75
75420;BME280;63998;52.488;13.428;2023-01-15T00:58:55;99211.69;;;8.81;78.63
75420;BME280;63998;52.488;13.428;2023-01-15T01:01:21;99202.16;;;8.84;78.36
75420;BME280;63998;52.488;13.428;2023-01-15T01:03:46;99209.03;;;8.85;79.00
75420;BME280;63998;52.488;13.428;2023-01-15T01:06:14;99196.13;;;8.82;78.77
75420;BME280;63998;52.488;13.428;2023-01-15T01:08:42;99190.03;;;8.86;78.53
75420;BME280;63998;52.488;13.428;2023-01-15T01:11:12;99194.41;;;8.83;78.12
75420;BME280;63998;52.488;13.428;2023-01-15T01:13:41;99186.56;;;8.87;77.86
75420;BME280;63998;52.488;13.428;2023-01-15T01:18:53;99203.72;;;8.94;78.02
75420;BME280;63998;52.488;13.428;2023-01-15T01:21:22;99184.75;;;8.92;77.44
75420;BME280;63998;52.488;13.428;2023-01-15T01:23:47;99205.41;;;8.95;77.88
75420;BME280;63998;52.488;13.428;2023-01-15T01:26:18;99188.94;;;9.01;78.00
75420;BME280;63998;52.488;13.428;2023-01-15T01:28:50;99196.66;;;9.02;78.00
75420;BME280;63998;52.488;13.428;2023-01-15T01:31:16;99215.69;;;9.02;77.56
75420;BME280;63998;52.488;13.428;2023-01-15T01:33:42;99210.41;;;9.08;77.52
75420;BME280;63998;52.488;13.428;2023-01-15T01:36:07;99213.84;;;9.08;77.38
75420;BME280;63998;52.488;13.428;2023-01-15T01:38:32;99202.59;;;9.11;77.41
75420;BME280;63998;52.488;13.428;2023-01-15T01:41:05;99200.03;;;9.08;77.72
75420;BME280;63998;52.488;13.428;2023-01-15T01:43:30;99198.25;;;9.13;76.99
75420;BME280;63998;52.488;13.428;2023-01-15T01:45:58;99170.59;;;9.13;77.39
75420;BME280;63998;52.488;13.428;2023-01-15T01:48:30;99174.09;;;9.11;77.44
75420;BME280;63998;52.488;13.428;2023-01-15T01:51:00;99188.66;;;9.16;77.60
75420;BME280;63998;52.488;13.428;2023-01-15T01:53:29;99175.69;;;9.18;77.93
75420;BME280;63998;52.488;13.428;2023-01-15T01:55:55;99195.66;;;9.13;78.30
75420;BME280;63998;52.488;13.428;2023-01-15T01:58:26;99202.66;;;9.06;78.67
75420;BME280;63998;52.488;13.428;2023-01-15T02:00:53;99191.47;;;9.02;79.26
75420;BME280;63998;52.488;13.428;2023-01-15T02:03:24;99191.44;;;9.06;79.47
75420;BME280;63998;52.488;13.428;2023-01-15T02:05:54;99185.38;;;9.07;79.39
75420;BME280;63998;52.488;13.428;2023-01-15T02:08:23;99187.25;;;8.98;79.45
75420;BME280;63998;52.488;13.428;2023-01-15T02:10:51;99177.78;;;8.97;79.92
75420;BME280;63998;52.488;13.428;2023-01-15T02:13:26;99184.72;;;8.94;80.51
75420;BME280;63998;52.488;13.428;2023-01-15T02:16:04;99179.56;;;8.92;81.06
75420;BME280;63998;52.488;13.428;2023-01-15T02:21:25;99164.06;;;8.91;81.14
75420;BME280;63998;52.488;13.428;2023-01-15T02:24:11;99177.97;;;8.85;81.66
75420;BME280;63998;52.488;13.428;2023-01-15T02:27:08;99179.72;;;8.85;82.44
75420;BME280;63998;52.488;13.428;2023-01-15T02:29:46;99186.69;;;8.78;82.70
75420;BME280;63998;52.488;13.428;2023-01-15T02:32:15;99186.69;;;8.78;83.12
75420;BME280;63998;52.488;13.428;2023-01-15T02:34:49;99176.31;;;8.80;83.37
75420;BME280;63998;52.488;13.428;2023-01-15T02:37:23;99174.72;;;8.74;83.29
75420;BME280;63998;52.488;13.428;2023-01-15T02:39:50;99167.72;;;8.79;83.78
75420;BME280;63998;52.488;13.428;2023-01-15T02:42:20;99176.41;;;8.75;83.53
75420;BME280;63998;52.488;13.428;2023-01-15T02:44:48;99169.50;;;8.77;84.00
75420;BME280;63998;52.488;13.428;2023-01-15T02:47:19;99151.31;;;8.79;83.64
75420;BME280;63998;52.488;13.428;2023-01-15T02:49:47;99164.41;;;8.71;84.21
75420;BME280;63998;52.488;13.428;2023-01-15T02:52:27;99166.09;;;8.72;84.11
75420;BME280;63998;52.488;13.428;2023-01-15T02:54:59;99154.91;;;8.72;84.38
75420;BME280;63998;52.488;13.428;2023-01-15T02:57:28;99169.53;;;8.74;84.50
75420;BME280;63998;52.488;13.428;2023-01-15T03:00:00;99170.44;;;8.72;83.99
75420;BME280;63998;52.488;13.428;2023-01-15T03:02:34;99169.53;;;8.74;84.70
75420;BME280;63998;52.488;13.428;2023-01-15T03:05:32;99175.59;;;8.72;84.90
75420;BME280;63998;52.488;13.428;2023-01-15T03:08:02;99164.44;;;8.68;85.17
75420;BME280;63998;52.488;13.428;2023-01-15T03:10:55;99165.22;;;8.73;85.24
75420;BME280;63998;52.488;13.428;2023-01-15T03:17:52;99161.16;;;8.58;85.73
75420;BME280;63998;52.488;13.428;2023-01-15T03:19:57;99164.59;;;8.59;85.76
75420;BME280;63998;52.488;13.428;2023-01-15T03:22:37;99154.16;;;8.65;85.62
75420;BME280;63998;52.488;13.428;2023-01-15T03:25:06;99156.66;;;8.68;86.19
75420;BME280;63998;52.488;13.428;2023-01-15T03:27:33;99164.50;;;8.65;86.05
75420;BME280;63998;52.488;13.428;2023-01-15T03:30:08;99155.84;;;8.66;85.75
75420;BME280;63998;52.488;13.428;2023-01-15T03:32:35;99158.47;;;8.64;86.01
75420;BME280;63998;52.488;13.428;2023-01-15T03:35:04;99153.19;;;8.71;86.19
75420;BME280;63998;52.488;13.428;2023-01-15T03:37:30;99150.66;;;8.66;85.78
75420;BME280;63998;52.488;13.428;2023-01-15T03:39:57;99159.25;;;8.68;86.26
75420;BME280;63998;52.488;13.428;2023-01-15T03:42:38;99161.00;;;8.66;85.74
75420;BME280;63998;52.488;13.428;2023-01-15T03:50:34;99173.22;;;8.58;86.50
75420;BME280;63998;52.488;13.428;2023-01-15T03:53:20;99174.09;;;8.57;86.69
75420;BME280;63998;52.488;13.428;2023-01-15T03:58:38;99169.81;;;8.56;86.60
75420;BME280;63998;52.488;13.428;2023-01-15T04:01:09;99164.59;;;8.59;87.35
75420;BME280;63998;52.488;13.428;2023-01-15T04:03:36;99174.03;;;8.61;86.85
75420;BME280;63998;52.488;13.428;2023-01-15T04:06:03;99167.97;;;8.64;87.05
75420;BME280;63998;52.488;13.428;2023-01-15T04:08:32;99167.97;;;8.64;86.68
75420;BME280;63998;52.488;13.428;2023-01-15T04:11:01;99185.25;;;8.62;86.51
75420;BME280;63998;52.488;13.428;2023-01-15T04:13:29;99216.28;;;8.65;86.91
75420;BME280;63998;52.488;13.428;2023-01-15T04:15:58;99235.38;;;8.55;85.88
75420;BME280;63998;52.488;13.428;2023-01-15T04:18:26;99241.72;;;8.29;83.41
75420;BME280;63998;52.488;13.428;2023-01-15T04:20:51;99253.88;;;8.24;83.07
75420;BME280;63998;52.488;13.428;2023-01-15T04:23:23;99253.22;;;8.07;82.76
75420;BME280;63998;52.488;13.428;2023-01-15T04:25:48;99248.25;;;7.90;82.43
75420;BME280;63998;52.488;13.428;2023-01-15T04:28:14;99253.50;;;7.83;81.89
75420;BME280;63998;52.488;13.428;2023-01-15T04:30:41;99256.94;;;7.82;82.58
75420;BME280;63998;52.488;13.428;2023-01-15T04:33:07;99268.22;;;7.76;82.08
75420;BME280;63998;52.488;13.428;2023-01-15T04:35:33;99275.03;;;7.82;82.58
75420;BME280;63998;52.488;13.428;2023-01-15T04:38:00;99289.88;;;7.65;82.81
75420;BME280;63998;52.488;13.428;2023-01-15T04:40:26;99272.81;;;7.48;80.81
75420;BME280;63998;52.488;13.428;2023-01-15T04:43:14;99277.16;;;7.42;80.39
75420;BME280;63998;52.488;13.428;2023-01-15T04:45:59;99281.56;;;7.32;79.66
75420;BME280;63998;52.488;13.428;2023-01-15T04:48:26;99323.00;;;7.17;78.99
75420;BME280;63998;52.488;13.428;2023-01-15T04:50:54;99299.03;;;6.97;78.01
75420;BME280;63998;52.488;13.428;2023-01-15T04:53:19;99311.94;;;7.00;78.49
75420;BME280;63998;52.488;13.428;2023-01-15T04:55:47;99309.44;;;6.91;78.69
75420;BME280;63998;52.488;13.428;2023-01-15T04:58:12;99312.88;;;6.83;78.78
75420;BME280;63998;52.488;13.428;2023-01-15T05:00:39;99321.56;;;6.73;78.73
75420;BME280;63998;52.488;13.428;2023-01-15T05:03:04;99320.69;;;6.73;78.48
75420;BME280;63998;52.488;13.428;2023-01-15T05:05:29;99313.88;;;6.64;79.03
75420;BME280;63998;52.488;13.428;2023-01-15T05:07:56;99328.50;;;6.56;78.33
75420;BME280;63998;52.488;13.428;2023-01-15T05:10:24;99325.13;;;6.54;78.01
75420;BME280;63998;52.488;13.428;2023-01-15T05:12:51;99319.09;;;6.51;77.54
75420;BME280;63998;52.488;13.428;2023-01-15T05:15:17;99319.94;;;6.54;77.09
75420;BME280;63998;52.488;13.428;2023-01-15T05:17:48;99321.69;;;6.47;77.00
75420;BME280;63998;52.488;13.428;2023-01-15T05:20:13;99319.09;;;6.54;77.34
75420;BME280;63998;52.488;13.428;2023-01-15T05:22:41;99300.19;;;6.52;77.25
75420;BME280;63998;52.488;13.428;2023-01-15T05:25:08;99306.19;;;6.55;76.36
75420;BME280;63998;52.488;13.428;2023-01-15T05:27:36;99307.94;;;6.50;76.79
75420;BME280;63998;52.488;13.428;2023-01-15T05:30:04;99314.81;;;6.45;75.85
75420;BME280;63998;52.488;13.428;2023-01-15T05:32:31;99311.38;;;6.46;75.75
75420;BME280;63998;52.488;13.428;2023-01-15T05:34:59;99301.09;;;6.40;75.42
75420;BME280;63998;52.488;13.428;2023-01-15T05:37:28;99328.59;;;6.38;75.66
75420;BME280;63998;52.488;13.428;2023-01-15T05:39:53;99337.25;;;6.28;75.90
75420;BME280;63998;52.488;13.428;2023-01-15T05:42:19;99320.06;;;6.21;76.32
75420;BME280;63998;52.488;13.428;2023-01-15T05:44:44;99318.38;;;6.13;76.94
75420;BME280;63998;52.488;13.428;2023-01-15T05:47:11;99327.84;;;6.16;76.45
75420;BME280;63998;52.488;13.428;2023-01-15T05:49:39;99327.88;;;6.04;76.15
75420;BME280;63998;52.488;13.428;2023-01-15T05:52:05;99324.44;;;6.05;76.92
75420;BME280;63998;52.488;13.428;2023-01-15T05:54:33;99333.00;;;6.08;77.24
75420;BME280;63998;52.488;13.428;2023-01-15T05:56:58;99345.88;;;6.08;77.40
75420;BME280;63998;52.488;13.428;2023-01-15T05:59:27;99331.31;;;5.95;76.60
75420;BME280;63998;52.488;13.428;2023-01-15T06:01:55;99311.56;;;5.97;77.11
75420;BME280;63998;52.488;13.428;2023-01-15T06:04:21;99323.56;;;5.95;77.03
75420;BME280;63998;52.488;13.428;2023-01-15T06:06:49;99321.88;;;5.91;76.50
75420;BME280;63998;52.488;13.428;2023-01-15T06:09:18;99316.69;;;5.94;77.06
75420;BME280;63998;52.488;13.428;2023-01-15T06:11:43;99321.00;;;5.94;76.71
75420;BME280;63998;52.488;13.428;2023-01-15T06:14:10;99308.13;;;5.95;77.59
75420;BME280;63998;52.488;13.428;2023-01-15T06:16:43;99299.53;;;5.99;77.25
75420;BME280;63998;52.488;13.428;2023-01-15T06:19:13;99306.41;;;6.00;77.24
75420;BME280;63998;52.488;13.428;2023-01-15T06:21:39;99308.13;;;5.95;77.49
75420;BME280;63998;52.488;13.428;2023-01-15T06:24:06;99309.00;;;5.90;77.51
75420;BME280;63998;52.488;13.428;2023-01-15T06:26:34;99305.56;;;5.89;77.95
75420;BME280;63998;52.488;13.428;2023-01-15T06:28:59;99308.97;;;5.87;76.93
75420;BME280;63998;52.488;13.428;2023-01-15T06:31:27;99305.53;;;5.94;77.47
75420;BME280;63998;52.488;13.428;2023-01-15T06:33:54;99312.44;;;5.92;77.12
75420;BME280;63998;52.488;13.428;2023-01-15T06:36:20;99326.16;;;5.86;77.07
75420;BME280;63998;52.488;13.428;2023-01-15T06:38:46;99331.31;;;5.83;77.95
75420;BME280;63998;52.488;13.428;2023-01-15T06:41:20;99331.31;;;5.85;77.70
75420;BME280;63998;52.488;13.428;2023-01-15T06:44:05;99335.59;;;5.87;78.50
75420;BME280;63998;52.488;13.428;2023-01-15T06:46:49;99335.63;;;5.93;78.59
75420;BME280;63998;52.488;13.428;2023-01-15T06:49:34;99323.59;;;5.91;79.65
75420;BME280;63998;52.488;13.428;2023-01-15T06:52:01;99325.28;;;5.96;79.23
75420;BME280;63998;52.488;13.428;2023-01-15T06:54:26;99323.56;;;6.04;79.49
75420;BME280;63998;52.488;13.428;2023-01-15T06:56:52;99325.25;;;6.11;79.46
75420;BME280;63998;52.488;13.428;2023-01-15T06:59:18;99331.28;;;6.07;78.24
75420;BME280;63998;52.488;13.428;2023-01-15T07:01:46;99327.84;;;6.07;78.52
75420;BME280;63998;52.488;13.428;2023-01-15T07:04:12;99335.59;;;6.02;78.26
75420;BME280;63998;52.488;13.428;2023-01-15T07:06:37;99339.03;;;6.01;79.05
75420;BME280;63998;52.488;13.428;2023-01-15T07:09:03;99342.44;;;6.06;78.97
75420;BME280;63998;52.488;13.428;2023-01-15T07:11:28;99349.31;;;6.10;78.43
75420;BME280;63998;52.488;13.428;2023-01-15T07:13:56;99359.63;;;6.09;78.74
75420;BME280;63998;52.488;13.428;2023-01-15T07:16:34;99366.50;;;6.08;78.87
75420;BME280;63998;52.488;13.428;2023-01-15T07:19:03;99354.50;;;6.04;78.84
75420;BME280;63998;52.488;13.428;2023-01-15T07:21:31;99350.25;;;5.93;78.60
75420;BME280;63998;52.488;13.428;2023-01-15T07:24:00;99353.66;;;6.01;79.12
75420;BME280;63998;52.488;13.428;2023-01-15T07:26:26;99351.06;;;5.96;78.60
75420;BME280;63998;52.488;13.428;2023-01-15T07:28:52;99353.66;;;5.92;78.36
75420;BME280;63998;52.488;13.428;2023-01-15T07:31:17;99351.06;;;5.98;79.02
75420;BME280;63998;52.488;13.428;2023-01-15T07:33:43;99348.50;;;5.98;79.22
75420;BME280;63998;52.488;13.428;2023-01-15T07:36:09;99357.94;;;5.97;79.03
75420;BME280;63998;52.488;13.428;2023-01-15T07:38:34;99365.69;;;5.93;78.84
75420;BME280;63998;52.488;13.428;2023-01-15T07:41:02;99363.13;;;5.90;79.22
75420;BME280;63998;52.488;13.428;2023-01-15T07:43:46;99359.66;;;5.98;79.65
75420;BME280;63998;52.488;13.428;2023-01-15T07:46:30;99356.19;;;6.15;80.15
75420;BME280;63998;52.488;13.428;2023-01-15T07:49:14;99364.75;;;6.20;79.53
75420;BME280;63998;52.488;13.428;2023-01-15T07:51:58;99372.44;;;6.41;79.72
75420;BME280;63998;52.488;13.428;2023-01-15T07:54:24;99373.28;;;6.43;78.83
75420;BME280;63998;52.488;13.428;2023-01-15T07:56:53;99383.66;;;6.28;77.66
75420;BME280;63998;52.488;13.428;2023-01-15T07:59:22;99385.38;;;6.29;78.46
75420;BME280;63998;52.488;13.428;2023-01-15T08:01:50;99388.84;;;6.11;78.48
75420;BME280;63998;52.488;13.428;2023-01-15T08:04:15;99386.28;;;6.05;78.53
75420;BME280;63998;52.488;13.428;2023-01-15T08:06:40;99386.25;;;6.12;79.08
75420;BME280;63998;52.488;13.428;2023-01-15T08:09:06;99392.28;;;6.08;79.60
75420;BME280;63998;52.488;13.428;2023-01-15T08:11:33;99390.56;;;6.07;79.60
75420;BME280;63998;52.488;13.428;2023-01-15T08:14:17;99387.13;;;6.15;78.68
75420;BME280;63998;52.488;13.428;2023-01-15T08:17:02;99371.63;;;6.21;79.30
75420;BME280;63998;52.488;13.428;2023-01-15T08:19:28;99356.16;;;6.27;79.34
75420;BME280;63998;52.488;13.428;2023-01-15T08:21:54;99350.16;;;6.20;78.43
75420;BME280;63998;52.488;13.428;2023-01-15T08:24:26;99359.63;;;6.17;77.90
75420;BME280;63998;52.488;13.428;2023-01-15T08:26:53;99365.63;;;6.19;78.73
75420;BME280;63998;52.488;13.428;2023-01-15T08:29:19;99366.53;;;6.05;78.24
75420;BME280;63998;52.488;13.428;2023-01-15T08:31:45;99368.25;;;5.97;78.47
75420;BME280;63998;52.488;13.428;2023-01-15T08:34:10;99371.66;;;6.08;79.21
75420;BME280;63998;52.488;13.428;2023-01-15T08:36:36;99374.25;;;6.11;79.35
75420;BME280;63998;52.488;13.428;2023-01-15T08:39:02;99380.25;;;6.13;78.85
75420;BME280;63998;52.488;13.428;2023-01-15T08:41:28;99366.50;;;6.11;78.25
75420;BME280;63998;52.488;13.428;2023-01-15T08:43:53;99382.00;;;6.02;77.83
75420;BME280;63998;52.488;13.428;2023-01-15T08:46:21;99381.97;;;6.18;77.86
75420;BME280;63998;52.488;13.428;2023-01-15T08:48:47;99380.22;;;6.26;77.44
75420;BME280;63998;52.488;13.428;2023-01-15T08:51:15;99379.31;;;6.36;77.31
75420;BME280;63998;52.488;13.428;2023-01-15T08:53:40;99378.47;;;6.31;76.38
75420;BME280;63998;52.488;13.428;2023-01-15T08:56:13;99376.75;;;6.33;76.53
75420;BME280;63998;52.488;13.428;2023-01-15T08:58:38;99376.78;;;6.21;75.75
75420;BME280;63998;52.488;13.428;2023-01-15T09:01:05;99383.69;;;6.09;76.46
75420;BME280;63998;52.488;13.428;2023-01-15T09:03:32;99381.13;;;6.03;76.24
75420;BME280;63998;52.488;13.428;2023-01-15T09:06:01;99387.97;;;6.07;76.69
75420;BME280;63998;52.488;13.428;2023-01-15T09:08:27;99396.56;;;6.09;76.66
75420;BME280;63998;52.488;13.428;2023-01-15T09:11:00;99404.31;;;6.12;76.21
75420;BME280;63998;52.488;13.428;2023-01-15T09:13:27;99400.88;;;6.10;75.83
75420;BME280;63998;52.488;13.428;2023-01-15T09:15:58;99406.03;;;6.07;75.65
75420;BME280;63998;52.488;13.428;2023-01-15T09:18:23;99406.03;;;6.10;75.61
75420;BME280;63998;52.488;13.428;2023-01-15T09:20:51;99403.44;;;6.12;75.75
75420;BME280;63998;52.488;13.428;2023-01-15T09:23:16;99405.13;;;6.21;75.39
75420;BME280;63998;52.488;13.428;2023-01-15T09:25:59;99405.16;;;6.15;75.43
75420;BME280;63998;52.488;13.428;2023-01-15T09:28:28;99416.34;;;6.12;75.25
75420;BME280;63998;52.488;13.428;2023-01-15T09:30:56;99412.03;;;6.12;75.37
75420;BME280;63998;52.488;13.428;2023-01-15T09:33:22;99413.75;;;6.15;75.19
75420;BME280;63998;52.488;13.428;2023-01-15T09:35:47;99405.19;;;6.05;74.85
75420;BME280;63998;52.488;13.428;2023-01-15T09:38:17;99413.75;;;6.07;75.56
75420;BME280;63998;52.488;13.428;2023-01-15T09:43:20;99421.47;;;6.23;75.16
75420;BME280;63998;52.488;13.428;2023-01-15T09:45:59;99424.06;;;6.23;74.33
75420;BME280;63998;52.488;13.428;2023-01-15T09:48:49;99424.06;;;6.30;74.76
75420;BME280;63998;52.488;13.428;2023-01-15T09:56:49;99423.19;;;6.24;73.99
75420;BME280;63998;52.488;13.428;2023-01-15T09:59:36;99419.78;;;6.17;73.27
75420;BME280;63998;52.488;13.428;2023-01-15T10:02:57;99416.31;;;6.20;74.21
75420;BME280;63998;52.488;13.428;2023-01-15T10:05:08;99423.22;;;6.18;74.07
75420;BME280;63998;52.488;13.428;2023-01-15T10:10:27;99419.72;;;6.31;73.38
75420;BME280;63998;52.488;13.428;2023-01-15T10:13:05;99423.19;;;6.30;72.77
75420;BME280;63998;52.488;13.428;2023-01-15T10:15:43;99400.81;;;6.35;72.93
75420;BME280;63998;52.488;13.428;2023-01-15T10:18:17;99405.94;;;6.44;72.89
75420;BME280;63998;52.488;13.428;2023-01-15T10:23:22;99407.69;;;6.42;71.06
75420;BME280;63998;52.488;13.428;2023-01-15T10:26:30;99416.28;;;6.41;71.83
75420;BME280;63998;52.488;13.428;2023-01-15T10:45:32;99396.44;;;6.61;70.51
75420;BME280;63998;52.488;13.428;2023-01-15T10:48:18;99400.72;;;6.62;70.21
75420;BME280;63998;52.488;13.428;2023-01-15T10:50:46;99407.63;;;6.63;70.36
75420;BME280;63998;52.488;13.428;2023-01-15T10:56:02;99409.28;;;6.70;69.66
75420;BME280;63998;52.488;13.428;2023-01-15T10:59:03;99405.84;;;6.68;68.88
75420;BME280;63998;52.488;13.428;2023-01-15T11:01:33;99414.44;;;6.72;69.42
75420;BME280;63998;52.488;13.428;2023-01-15T11:03:59;99412.72;;;6.75;69.17
75420;BME280;63998;52.488;13.428;2023-01-15T11:06:24;99419.59;;;6.76;69.57
75420;BME280;63998;52.488;13.428;2023-01-15T11:08:52;99417.88;;;6.78;68.65
75420;BME280;63998;52.488;13.428;2023-01-15T11:12:04;99423.06;;;6.72;68.58
75420;BME280;63998;52.488;13.428;2023-01-15T11:14:42;99417.84;;;6.81;68.90
75420;BME280;63998;52.488;13.428;2023-01-15T11:17:37;99426.44;;;6.80;68.62
75420;BME280;63998;52.488;13.428;2023-01-15T11:20:30;99431.66;;;6.71;68.44
75420;BME280;63998;52.488;13.428;2023-01-15T11:23:04;99418.75;;;6.74;67.99
75420;BME280;63998;52.488;13.428;2023-01-15T11:25:31;99418.75;;;6.70;68.37
75420;BME280;63998;52.488;13.428;2023-01-15T11:27:59;99417.03;;;6.75;68.66
75420;BME280;63998;52.488;13.428;2023-01-15T11:30:27;99428.22;;;6.72;68.15
75420;BME280;63998;52.488;13.428;2023-01-15T11:32:55;99410.16;;;6.74;67.99
75420;BME280;63998;52.488;13.428;2023-01-15T11:35:21;99429.06;;;6.79;68.03
75420;BME280;63998;52.488;13.428;2023-01-15T11:37:47;99424.72;;;6.82;67.16
75420;BME280;63998;52.488;13.428;2023-01-15T11:40:20;99416.13;;;6.83;66.89
75420;BME280;63998;52.488;13.428;2023-01-15T11:42:48;99417.88;;;6.78;67.15
75420;BME280;63998;52.488;13.428;2023-01-15T11:45:32;99411.00;;;6.74;67.01
75420;BME280;63998;52.488;13.428;2023-01-15T11:48:22;99404.13;;;6.76;67.25
75420;BME280;63998;52.488;13.428;2023-01-15T11:51:09;99404.13;;;6.76;66.94
75420;BME280;63998;52.488;13.428;2023-01-15T11:53:53;99412.72;;;6.75;66.89
75420;BME280;63998;52.488;13.428;2023-01-15T11:56:23;99405.84;;;6.71;66.26
75420;BME280;63998;52.488;13.428;2023-01-15T11:58:55;99419.66;;;6.61;66.36
75420;BME280;63998;52.488;13.428;2023-01-15T12:01:25;99417.94;;;6.60;66.72
75420;BME280;63998;52.488;13.428;2023-01-15T12:03:54;99403.31;;;6.61;67.00
75420;BME280;63998;52.488;13.428;2023-01-15T12:06:20;99396.44;;;6.61;66.22
75420;BME280;63998;52.488;13.428;2023-01-15T12:21:03;99407.63;;;6.63;66.48
75420;BME280;63998;52.488;13.428;2023-01-15T12:29:54;99405.84;;;6.71;66.04
75420;BME280;63998;52.488;13.428;2023-01-15T12:32:30;99416.16;;;6.74;65.67
75420;BME280;63998;52.488;13.428;2023-01-15T12:35:03;99403.25;;;6.76;65.81
75420;BME280;63998;52.488;13.428;2023-01-15T12:37:41;99392.03;;;6.83;65.28
75420;BME280;63998;52.488;13.428;2023-01-15T12:40:28;99392.00;;;6.91;64.51
75420;BME280;63998;52.488;13.428;2023-01-15T12:42:59;99379.94;;;6.96;64.29
75420;BME280;63998;52.488;13.428;2023-01-15T12:45:46;99395.41;;;6.96;64.03
75420;BME280;63998;52.488;13.428;2023-01-15T12:48:46;99380.84;;;6.90;64.61
75420;BME280;63998;52.488;13.428;2023-01-15T12:51:21;99383.44;;;6.85;65.06
75420;BME280;63998;52.488;13.428;2023-01-15T12:53:54;99386.00;;;6.81;64.89
75420;BME280;63998;52.488;13.428;2023-01-15T12:56:52;99386.06;;;6.78;65.22
75420;BME280;63998;52.488;13.428;2023-01-15T12:59:25;99404.13;;;6.76;64.93
75420;BME280;63998;52.488;13.428;2023-01-15T13:02:23;99378.31;;;6.76;64.73
75420;BME280;63998;52.488;13.428;2023-01-15T13:05:12;99377.41;;;6.82;64.96
75420;BME280;63998;52.488;13.428;2023-01-15T13:07:48;99388.59;;;6.85;64.62
75420;BME280;63998;52.488;13.428;2023-01-15T13:10:23;99373.09;;;6.85;65.31
75420;BME280;63998;52.488;13.428;2023-01-15T13:12:54;99392.81;;;7.02;64.92
75420;BME280;63998;52.488;13.428;2023-01-15T13:15:28;99400.41;;;7.26;64.05
75420;BME280;63998;52.488;13.428;2023-01-15T13:18:05;99377.78;;;7.55;62.66
75420;BME280;63998;52.488;13.428;2023-01-15T13:20:49;99372.28;;;7.95;60.75
75420;BME280;63998;52.488;13.428;2023-01-15T13:23:39;99375.38;;;8.34;59.96
75420;BME280;63998;52.488;13.428;2023-01-15T13:26:28;99386.72;;;8.17;59.49
75420;BME280;63998;52.488;13.428;2023-01-15T13:34:44;99398.56;;;7.43;61.71
75420;BME280;63998;52.488;13.428;2023-01-15T13:37:19;99412.41;;;7.30;61.87
75420;BME280;63998;52.488;13.428;2023-01-15T13:39:46;99392.34;;;7.69;61.07
75420;BME280;63998;52.488;13.428;2023-01-15T13:42:22;99403.69;;;7.48;61.18
75420;BME280;63998;52.488;13.428;2023-01-15T13:45:19;99395.31;;;7.17;62.02
75420;BME280;63998;52.488;13.428;2023-01-15T13:47:54;99391.94;;;7.03;63.09
75420;BME280;63998;52.488;13.428;2023-01-15T13:50:31;99407.53;;;6.81;63.12
75420;BME280;63998;52.488;13.428;2023-01-15T13:55:41;99400.63;;;6.85;63.90
75420;BME280;63998;52.488;13.428;2023-01-15T13:58:23;99393.69;;;6.95;63.20
75420;BME280;63998;52.488;13.428;2023-01-15T14:03:29;99427.38;;;8.86;57.70
75420;BME280;63998;52.488;13.428;2023-01-15T14:06:00;99415.81;;;9.13;56.45
75420;BME280;63998;52.488;13.428;2023-01-15T14:08:40;99408.72;;;9.27;55.47
75420;BME280;63998;52.488;13.428;2023-01-15T14:16:48;99408.66;;;9.85;54.13
75420;BME280;63998;52.488;13.428;2023-01-15T14:19:30;99414.34;;;10.07;52.89
75420;BME280;63998;52.488;13.428;2023-01-15T14:27:59;99453.63;;;9.26;54.59
75420;BME280;63998;52.488;13.428;2023-01-15T14:35:46;99464.16;;;9.14;55.23
75420;BME280;63998;52.488;13.428;2023-01-15T14:38:19;99455.13;;;9.42;55.28
75420;BME280;63998;52.488;13.428;2023-01-15T14:40:56;99467.50;;;9.22;55.27
75420;BME280;63998;52.488;13.428;2023-01-15T14:43:25;99460.47;;;9.30;55.57
75420;BME280;63998;52.488;13.428;2023-01-15T14:45:54;99459.53;;;9.37;55.02
75420;BME280;63998;52.488;13.428;2023-01-15T14:48:20;99480.19;;;8.71;56.20
75420;BME280;63998;52.488;13.428;2023-01-15T14:51:13;99485.47;;;8.62;56.88
75420;BME280;63998;52.488;13.428;2023-01-15T14:53:42;99492.72;;;8.20;57.71
75420;BME280;63998;52.488;13.428;2023-01-15T14:59:07;99506.03;;;7.75;59.49
75420;BME280;63998;52.488;13.428;2023-01-15T15:01:37;99496.69;;;7.49;60.07
75420;BME280;63998;52.488;13.428;2023-01-15T15:07:09;99514.16;;;6.96;61.36